sensor_id;sensor_type;location;lat;lon;timestamp;P1;durP1;ratioP1;P2;durP2;ratioP2
71622;SDS011;59473;53.214;5.728;2022-08-21T00:00:21;17.20;;;5.60;;
71622;SDS011;59473;53.214;5.728;2022-08-21T00:02:48;17.20;;;6.28;;
71622;SDS011;59473;53.214;5.728;2022-08-21T00:05:13;13.98;;;6.00;;
71622;SDS011;59473;53.214;5.728;2022-08-21T00:07:39;14.77;;;5.70;;
71622;SDS011;59473;53.214;5.728;2022-08-21T00:10:04;17.10;;;5.90;;
71622;SDS011;59473;53.214;5.728;2022-08-21T00:12:29;13.70;;;5.50;;
71622;SDS011;59473;53.214;5.728;2022-08-21T00:14:56;15.50;;;5.47;;
71622;SDS011;59473;53.214;5.728;2022-08-21T00:17:21;13.60;;;5.30;;
71622;SDS011;59473;53.214;5.728;2022-08-21T00:19:47;13.20;;;5.40;;
71622;SDS011;59473;53.214;5.728;2022-08-21T00:22:13;13.88;;;5.03;;
71622;SDS011;59473;53.214;5.728;2022-08-21T00:24:38;17.03;;;5.57;;
71622;SDS011;59473;53.214;5.728;2022-08-21T00:27:03;14.73;;;5.83;;
71622;SDS011;59473;53.214;5.728;2022-08-21T00:29:29;16.23;;;5.60;;
71622;SDS011;59473;53.214;5.728;2022-08-21T00:31:54;12.93;;;5.70;;
71622;SDS011;59473;53.214;5.728;2022-08-21T00:34:19;15.37;;;5.60;;
71622;SDS011;59473;53.214;5.728;2022-08-21T00:36:44;13.43;;;5.03;;
71622;SDS011;59473;53.214;5.728;2022-08-21T00:39:09;16.70;;;5.83;;
71622;SDS011;59473;53.214;5.728;2022-08-21T00:41:36;22.03;;;6.90;;
71622;SDS011;59473;53.214;5.728;2022-08-21T00:44:02;14.68;;;5.97;;
71622;SDS011;59473;53.214;5.728;2022-08-21T00:46:28;15.00;;;5.97;;
71622;SDS011;59473;53.214;5.728;2022-08-21T00:48:54;15.07;;;6.37;;
71622;SDS011;59473;53.214;5.728;2022-08-21T00:51:21;15.52;;;6.25;;
71622;SDS011;59473;53.214;5.728;2022-08-21T00:53:51;13.27;;;6.00;;
71622;SDS011;59473;53.214;5.728;2022-08-21T00:56:18;12.93;;;5.82;;
71622;SDS011;59473;53.214;5.728;2022-08-21T00:58:43;15.13;;;5.88;;
71622;SDS011;59473;53.214;5.728;2022-08-21T01:01:10;13.63;;;5.32;;
71622;SDS011;59473;53.214;5.728;2022-08-21T01:03:36;16.33;;;6.07;;
71622;SDS011;59473;53.214;5.728;2022-08-21T01:06:01;15.00;;;5.53;;
71622;SDS011;59473;53.214;5.728;2022-08-21T01:08:28;16.25;;;5.78;;
71622;SDS011;59473;53.214;5.728;2022-08-21T01:10:54;17.75;;;6.05;;
71622;SDS011;59473;53.214;5.728;2022-08-21T01:13:20;13.50;;;5.15;;
71622;SDS011;59473;53.214;5.728;2022-08-21T01:15:49;14.33;;;5.53;;
71622;SDS011;59473;53.214;5.728;2022-08-21T01:18:15;14.10;;;5.47;;
71622;SDS011;59473;53.214;5.728;2022-08-21T01:20:43;15.32;;;5.20;;
71622;SDS011;59473;53.214;5.728;2022-08-21T01:23:08;17.00;;;6.17;;
71622;SDS011;59473;53.214;5.728;2022-08-21T01:25:33;14.60;;;5.47;;
71622;SDS011;59473;53.214;5.728;2022-08-21T01:28:00;13.63;;;5.70;;
71622;SDS011;59473;53.214;5.728;2022-08-21T01:30:27;14.70;;;5.40;;
71622;SDS011;59473;53.214;5.728;2022-08-21T01:32:53;14.85;;;5.80;;
71622;SDS011;59473;53.214;5.728;2022-08-21T01:35:19;14.45;;;5.53;;
71622;SDS011;59473;53.214;5.728;2022-08-21T01:37:45;14.57;;;5.73;;
71622;SDS011;59473;53.214;5.728;2022-08-21T01:40:10;17.77;;;5.70;;
71622;SDS011;59473;53.214;5.728;2022-08-21T01:42:37;13.05;;;5.93;;
71622;SDS011;59473;53.214;5.728;2022-08-21T01:45:03;19.25;;;6.05;;
71622;SDS011;59473;53.214;5.728;2022-08-21T01:47:28;17.30;;;5.72;;
71622;SDS011;59473;53.214;5.728;2022-08-21T01:49:54;17.43;;;5.57;;
71622;SDS011;59473;53.214;5.728;2022-08-21T01:52:19;15.03;;;5.97;;
71622;SDS011;59473;53.214;5.728;2022-08-21T01:54:45;15.07;;;5.87;;
71622;SDS011;59473;53.214;5.728;2022-08-21T01:57:10;12.63;;;5.93;;
71622;SDS011;59473;53.214;5.728;2022-08-21T01:59:36;13.77;;;5.40;;
71622;SDS011;59473;53.214;5.728;2022-08-21T02:02:02;14.87;;;5.20;;
71622;SDS011;59473;53.214;5.728;2022-08-21T02:04:28;15.40;;;6.43;;
71622;SDS011;59473;53.214;5.728;2022-08-21T02:06:53;13.13;;;5.80;;
71622;SDS011;59473;53.214;5.728;2022-08-21T02:09:18;16.40;;;6.13;;
71622;SDS011;59473;53.214;5.728;2022-08-21T02:11:44;13.77;;;5.87;;
71622;SDS011;59473;53.214;5.728;2022-08-21T02:14:10;16.25;;;6.45;;
71622;SDS011;59473;53.214;5.728;2022-08-21T02:16:36;16.00;;;5.73;;
71622;SDS011;59473;53.214;5.728;2022-08-21T02:19:02;14.57;;;5.80;;
71622;SDS011;59473;53.214;5.728;2022-08-21T02:21:27;13.87;;;6.17;;
71622;SDS011;59473;53.214;5.728;2022-08-21T02:23:53;13.27;;;6.00;;
71622;SDS011;59473;53.214;5.728;2022-08-21T02:26:18;14.17;;;6.37;;
71622;SDS011;59473;53.214;5.728;2022-08-21T02:28:43;14.27;;;7.03;;
71622;SDS011;59473;53.214;5.728;2022-08-21T02:31:08;15.50;;;5.70;;
71622;SDS011;59473;53.214;5.728;2022-08-21T02:33:34;12.87;;;6.07;;
71622;SDS011;59473;53.214;5.728;2022-08-21T02:35:59;14.68;;;6.07;;
71622;SDS011;59473;53.214;5.728;2022-08-21T02:38:26;12.90;;;6.23;;
71622;SDS011;59473;53.214;5.728;2022-08-21T02:40:52;16.97;;;6.33;;
71622;SDS011;59473;53.214;5.728;2022-08-21T02:43:18;18.33;;;7.05;;
71622;SDS011;59473;53.214;5.728;2022-08-21T02:45:44;17.17;;;6.25;;
71622;SDS011;59473;53.214;5.728;2022-08-21T02:48:11;12.70;;;6.53;;
71622;SDS011;59473;53.214;5.728;2022-08-21T02:50:39;13.80;;;5.80;;
71622;SDS011;59473;53.214;5.728;2022-08-21T02:53:04;16.70;;;6.63;;
71622;SDS011;59473;53.214;5.728;2022-08-21T02:55:31;19.60;;;6.20;;
71622;SDS011;59473;53.214;5.728;2022-08-21T02:57:57;23.33;;;6.40;;
71622;SDS011;59473;53.214;5.728;2022-08-21T03:00:24;17.20;;;6.65;;
71622;SDS011;59473;53.214;5.728;2022-08-21T03:02:50;15.02;;;5.97;;
71622;SDS011;59473;53.214;5.728;2022-08-21T03:05:16;13.98;;;6.03;;
71622;SDS011;59473;53.214;5.728;2022-08-21T03:07:42;13.97;;;6.27;;
71622;SDS011;59473;53.214;5.728;2022-08-21T03:10:07;16.73;;;6.30;;
71622;SDS011;59473;53.214;5.728;2022-08-21T03:12:32;16.47;;;6.93;;
71622;SDS011;59473;53.214;5.728;2022-08-21T03:15:00;20.58;;;6.32;;
71622;SDS011;59473;53.214;5.728;2022-08-21T03:17:25;19.63;;;6.13;;
71622;SDS011;59473;53.214;5.728;2022-08-21T03:19:50;16.93;;;6.20;;
71622;SDS011;59473;53.214;5.728;2022-08-21T03:22:16;16.33;;;6.53;;
71622;SDS011;59473;53.214;5.728;2022-08-21T03:24:42;16.58;;;6.68;;
71622;SDS011;59473;53.214;5.728;2022-08-21T03:27:07;13.60;;;6.30;;
71622;SDS011;59473;53.214;5.728;2022-08-21T03:29:33;15.83;;;5.80;;
71622;SDS011;59473;53.214;5.728;2022-08-21T03:31:58;18.10;;;6.77;;
71622;SDS011;59473;53.214;5.728;2022-08-21T03:34:23;21.07;;;6.63;;
71622;SDS011;59473;53.214;5.728;2022-08-21T03:36:48;15.17;;;6.80;;
71622;SDS011;59473;53.214;5.728;2022-08-21T03:39:14;17.17;;;6.73;;
71622;SDS011;59473;53.214;5.728;2022-08-21T03:41:39;23.20;;;7.47;;
71622;SDS011;59473;53.214;5.728;2022-08-21T03:44:04;20.67;;;6.97;;
71622;SDS011;59473;53.214;5.728;2022-08-21T03:46:30;14.63;;;6.90;;
71622;SDS011;59473;53.214;5.728;2022-08-21T03:48:55;16.33;;;6.93;;
71622;SDS011;59473;53.214;5.728;2022-08-21T03:51:20;15.13;;;6.93;;
71622;SDS011;59473;53.214;5.728;2022-08-21T03:53:46;18.77;;;7.20;;
71622;SDS011;59473;53.214;5.728;2022-08-21T03:56:11;19.67;;;8.03;;
71622;SDS011;59473;53.214;5.728;2022-08-21T03:58:36;16.73;;;6.60;;
71622;SDS011;59473;53.214;5.728;2022-08-21T04:01:06;18.63;;;7.35;;
71622;SDS011;59473;53.214;5.728;2022-08-21T04:03:32;15.70;;;6.60;;
71622;SDS011;59473;53.214;5.728;2022-08-21T04:05:58;22.93;;;6.57;;
71622;SDS011;59473;53.214;5.728;2022-08-21T04:08:24;14.13;;;6.82;;
71622;SDS011;59473;53.214;5.728;2022-08-21T04:10:50;18.97;;;6.77;;
71622;SDS011;59473;53.214;5.728;2022-08-21T04:13:16;17.25;;;6.75;;
71622;SDS011;59473;53.214;5.728;2022-08-21T04:15:41;18.10;;;7.10;;
71622;SDS011;59473;53.214;5.728;2022-08-21T04:18:07;19.40;;;7.00;;
71622;SDS011;59473;53.214;5.728;2022-08-21T04:20:33;16.35;;;6.47;;
71622;SDS011;59473;53.214;5.728;2022-08-21T04:22:58;20.43;;;6.63;;
71622;SDS011;59473;53.214;5.728;2022-08-21T04:25:24;18.70;;;6.93;;
71622;SDS011;59473;53.214;5.728;2022-08-21T04:27:50;17.98;;;6.97;;
71622;SDS011;59473;53.214;5.728;2022-08-21T04:30:16;20.63;;;7.00;;
71622;SDS011;59473;53.214;5.728;2022-08-21T04:32:42;18.43;;;7.30;;
71622;SDS011;59473;53.214;5.728;2022-08-21T04:35:08;15.65;;;6.43;;
71622;SDS011;59473;53.214;5.728;2022-08-21T04:37:34;18.80;;;7.32;;
71622;SDS011;59473;53.214;5.728;2022-08-21T04:39:59;16.43;;;7.07;;
71622;SDS011;59473;53.214;5.728;2022-08-21T04:42:25;18.27;;;7.00;;
71622;SDS011;59473;53.214;5.728;2022-08-21T04:44:50;16.70;;;7.07;;
71622;SDS011;59473;53.214;5.728;2022-08-21T04:47:16;19.92;;;7.32;;
71622;SDS011;59473;53.214;5.728;2022-08-21T04:49:42;18.60;;;7.20;;
71622;SDS011;59473;53.214;5.728;2022-08-21T04:52:07;18.03;;;7.67;;
71622;SDS011;59473;53.214;5.728;2022-08-21T04:54:32;19.13;;;7.97;;
71622;SDS011;59473;53.214;5.728;2022-08-21T04:56:59;22.77;;;7.57;;
71622;SDS011;59473;53.214;5.728;2022-08-21T04:59:33;21.90;;;7.60;;
71622;SDS011;59473;53.214;5.728;2022-08-21T05:02:00;17.10;;;8.10;;
71622;SDS011;59473;53.214;5.728;2022-08-21T05:04:28;21.85;;;7.53;;
71622;SDS011;59473;53.214;5.728;2022-08-21T05:06:55;19.87;;;7.97;;
71622;SDS011;59473;53.214;5.728;2022-08-21T05:09:22;19.10;;;7.70;;
71622;SDS011;59473;53.214;5.728;2022-08-21T05:11:47;21.25;;;8.10;;
71622;SDS011;59473;53.214;5.728;2022-08-21T05:14:13;19.50;;;7.15;;
71622;SDS011;59473;53.214;5.728;2022-08-21T05:16:39;19.23;;;7.50;;
71622;SDS011;59473;53.214;5.728;2022-08-21T05:19:07;15.75;;;7.05;;
71622;SDS011;59473;53.214;5.728;2022-08-21T05:21:33;21.30;;;7.47;;
71622;SDS011;59473;53.214;5.728;2022-08-21T05:23:59;20.00;;;7.88;;
71622;SDS011;59473;53.214;5.728;2022-08-21T05:26:24;20.27;;;7.70;;
71622;SDS011;59473;53.214;5.728;2022-08-21T05:28:49;16.80;;;7.43;;
71622;SDS011;59473;53.214;5.728;2022-08-21T05:31:14;18.33;;;7.77;;
71622;SDS011;59473;53.214;5.728;2022-08-21T05:33:40;15.50;;;7.30;;
71622;SDS011;59473;53.214;5.728;2022-08-21T05:36:05;21.60;;;7.50;;
71622;SDS011;59473;53.214;5.728;2022-08-21T05:38:30;14.23;;;7.03;;
71622;SDS011;59473;53.214;5.728;2022-08-21T05:40:55;17.93;;;7.30;;
71622;SDS011;59473;53.214;5.728;2022-08-21T05:43:21;18.97;;;6.73;;
71622;SDS011;59473;53.214;5.728;2022-08-21T05:45:46;24.43;;;7.07;;
71622;SDS011;59473;53.214;5.728;2022-08-21T05:48:16;22.63;;;7.40;;
71622;SDS011;59473;53.214;5.728;2022-08-21T05:50:42;19.27;;;6.45;;
71622;SDS011;59473;53.214;5.728;2022-08-21T05:53:07;18.80;;;7.43;;
71622;SDS011;59473;53.214;5.728;2022-08-21T05:55:35;18.30;;;6.07;;
71622;SDS011;59473;53.214;5.728;2022-08-21T05:58:00;19.07;;;6.03;;
71622;SDS011;59473;53.214;5.728;2022-08-21T06:00:25;19.00;;;6.37;;
71622;SDS011;59473;53.214;5.728;2022-08-21T06:02:50;16.50;;;5.93;;
71622;SDS011;59473;53.214;5.728;2022-08-21T06:05:17;18.97;;;6.13;;
71622;SDS011;59473;53.214;5.728;2022-08-21T06:07:42;18.23;;;5.65;;
71622;SDS011;59473;53.214;5.728;2022-08-21T06:10:07;18.50;;;5.43;;
71622;SDS011;59473;53.214;5.728;2022-08-21T06:12:33;16.60;;;5.40;;
71622;SDS011;59473;53.214;5.728;2022-08-21T06:14:58;14.33;;;5.00;;
71622;SDS011;59473;53.214;5.728;2022-08-21T06:17:23;15.77;;;4.95;;
71622;SDS011;59473;53.214;5.728;2022-08-21T06:19:54;12.38;;;4.32;;
71622;SDS011;59473;53.214;5.728;2022-08-21T06:22:20;12.45;;;4.25;;
71622;SDS011;59473;53.214;5.728;2022-08-21T06:24:45;12.98;;;3.85;;
71622;SDS011;59473;53.214;5.728;2022-08-21T06:27:11;14.33;;;3.83;;
71622;SDS011;59473;53.214;5.728;2022-08-21T06:29:36;14.13;;;3.60;;
71622;SDS011;59473;53.214;5.728;2022-08-21T06:32:02;14.85;;;3.40;;
71622;SDS011;59473;53.214;5.728;2022-08-21T06:34:28;15.43;;;3.57;;
71622;SDS011;59473;53.214;5.728;2022-08-21T06:36:53;10.13;;;3.27;;
71622;SDS011;59473;53.214;5.728;2022-08-21T06:39:18;10.90;;;2.80;;
71622;SDS011;59473;53.214;5.728;2022-08-21T06:41:44;13.73;;;2.60;;
71622;SDS011;59473;53.214;5.728;2022-08-21T06:44:09;18.23;;;3.63;;
71622;SDS011;59473;53.214;5.728;2022-08-21T06:46:35;17.45;;;3.10;;
71622;SDS011;59473;53.214;5.728;2022-08-21T06:49:00;13.32;;;2.67;;
71622;SDS011;59473;53.214;5.728;2022-08-21T06:51:26;10.53;;;2.83;;
71622;SDS011;59473;53.214;5.728;2022-08-21T06:53:52;11.90;;;2.15;;
71622;SDS011;59473;53.214;5.728;2022-08-21T06:56:17;11.57;;;2.50;;
71622;SDS011;59473;53.214;5.728;2022-08-21T06:58:43;11.95;;;2.67;;
71622;SDS011;59473;53.214;5.728;2022-08-21T07:01:08;10.33;;;2.10;;
71622;SDS011;59473;53.214;5.728;2022-08-21T07:03:35;13.07;;;2.33;;
71622;SDS011;59473;53.214;5.728;2022-08-21T07:06:00;11.18;;;2.50;;
71622;SDS011;59473;53.214;5.728;2022-08-21T07:08:26;13.60;;;2.97;;
71622;SDS011;59473;53.214;5.728;2022-08-21T07:10:53;12.77;;;2.42;;
71622;SDS011;59473;53.214;5.728;2022-08-21T07:13:18;11.35;;;2.60;;
71622;SDS011;59473;53.214;5.728;2022-08-21T07:15:44;13.23;;;2.37;;
71622;SDS011;59473;53.214;5.728;2022-08-21T07:18:10;10.57;;;2.07;;
71622;SDS011;59473;53.214;5.728;2022-08-21T07:20:35;14.27;;;2.60;;
71622;SDS011;59473;53.214;5.728;2022-08-21T07:23:02;9.33;;;2.43;;
71622;SDS011;59473;53.214;5.728;2022-08-21T07:25:28;12.43;;;3.15;;
71622;SDS011;59473;53.214;5.728;2022-08-21T07:27:53;11.80;;;2.47;;
71622;SDS011;59473;53.214;5.728;2022-08-21T07:30:19;14.60;;;2.77;;
71622;SDS011;59473;53.214;5.728;2022-08-21T07:32:44;11.03;;;2.90;;
71622;SDS011;59473;53.214;5.728;2022-08-21T07:35:10;12.87;;;2.77;;
71622;SDS011;59473;53.214;5.728;2022-08-21T07:37:35;12.40;;;2.13;;
71622;SDS011;59473;53.214;5.728;2022-08-21T07:40:00;10.70;;;2.47;;
71622;SDS011;59473;53.214;5.728;2022-08-21T07:42:25;12.30;;;2.23;;
71622;SDS011;59473;53.214;5.728;2022-08-21T07:44:51;10.43;;;2.30;;
71622;SDS011;59473;53.214;5.728;2022-08-21T07:47:16;15.53;;;2.93;;
71622;SDS011;59473;53.214;5.728;2022-08-21T07:49:41;12.77;;;2.70;;
71622;SDS011;59473;53.214;5.728;2022-08-21T07:52:06;12.53;;;2.53;;
71622;SDS011;59473;53.214;5.728;2022-08-21T07:54:32;11.87;;;2.73;;
71622;SDS011;59473;53.214;5.728;2022-08-21T07:56:57;20.93;;;3.03;;
71622;SDS011;59473;53.214;5.728;2022-08-21T07:59:22;13.27;;;2.80;;
71622;SDS011;59473;53.214;5.728;2022-08-21T08:01:47;12.70;;;2.77;;
71622;SDS011;59473;53.214;5.728;2022-08-21T08:04:13;10.43;;;2.30;;
71622;SDS011;59473;53.214;5.728;2022-08-21T08:06:39;12.48;;;2.88;;
71622;SDS011;59473;53.214;5.728;2022-08-21T08:09:05;13.40;;;2.83;;
71622;SDS011;59473;53.214;5.728;2022-08-21T08:11:30;13.10;;;2.50;;
71622;SDS011;59473;53.214;5.728;2022-08-21T08:13:55;15.10;;;2.80;;
71622;SDS011;59473;53.214;5.728;2022-08-21T08:16:22;14.25;;;2.53;;
71622;SDS011;59473;53.214;5.728;2022-08-21T08:18:48;10.47;;;2.37;;
71622;SDS011;59473;53.214;5.728;2022-08-21T08:21:13;13.17;;;2.57;;
71622;SDS011;59473;53.214;5.728;2022-08-21T08:23:38;12.52;;;2.58;;
71622;SDS011;59473;53.214;5.728;2022-08-21T08:26:04;11.83;;;2.13;;
71622;SDS011;59473;53.214;5.728;2022-08-21T08:28:29;15.10;;;3.17;;
71622;SDS011;59473;53.214;5.728;2022-08-21T08:30:56;17.50;;;2.83;;
71622;SDS011;59473;53.214;5.728;2022-08-21T08:33:21;15.37;;;2.70;;
71622;SDS011;59473;53.214;5.728;2022-08-21T08:35:48;15.27;;;2.37;;
71622;SDS011;59473;53.214;5.728;2022-08-21T08:38:14;13.35;;;2.70;;
71622;SDS011;59473;53.214;5.728;2022-08-21T08:40:46;12.32;;;2.60;;
71622;SDS011;59473;53.214;5.728;2022-08-21T08:43:13;9.23;;;2.03;;
71622;SDS011;59473;53.214;5.728;2022-08-21T08:45:39;12.07;;;2.90;;
71622;SDS011;59473;53.214;5.728;2022-08-21T08:48:07;8.35;;;1.92;;
71622;SDS011;59473;53.214;5.728;2022-08-21T08:50:45;14.15;;;2.85;;
71622;SDS011;59473;53.214;5.728;2022-08-21T08:53:13;12.60;;;2.08;;
71622;SDS011;59473;53.214;5.728;2022-08-21T08:55:41;9.52;;;2.70;;
71622;SDS011;59473;53.214;5.728;2022-08-21T08:58:09;14.40;;;2.42;;
71622;SDS011;59473;53.214;5.728;2022-08-21T09:00:37;6.97;;;1.70;;
71622;SDS011;59473;53.214;5.728;2022-08-21T09:03:03;10.45;;;2.17;;
71622;SDS011;59473;53.214;5.728;2022-08-21T09:05:52;9.23;;;2.00;;
71622;SDS011;59473;53.214;5.728;2022-08-21T09:08:15;10.20;;;2.00;;
71622;SDS011;59473;53.214;5.728;2022-08-21T09:18:38;7.40;;;1.80;;
71622;SDS011;59473;53.214;5.728;2022-08-21T09:26:21;11.60;;;1.92;;
71622;SDS011;59473;53.214;5.728;2022-08-21T09:28:56;13.10;;;2.15;;
71622;SDS011;59473;53.214;5.728;2022-08-21T09:33:46;7.90;;;2.10;;
71622;SDS011;59473;53.214;5.728;2022-08-21T09:36:11;10.77;;;1.60;;
71622;SDS011;59473;53.214;5.728;2022-08-21T09:38:37;10.10;;;1.90;;
71622;SDS011;59473;53.214;5.728;2022-08-21T09:41:09;6.68;;;1.63;;
71622;SDS011;59473;53.214;5.728;2022-08-21T09:43:35;10.65;;;1.80;;
71622;SDS011;59473;53.214;5.728;2022-08-21T09:46:10;8.98;;;1.88;;
71622;SDS011;59473;53.214;5.728;2022-08-21T09:48:44;7.43;;;1.65;;
71622;SDS011;59473;53.214;5.728;2022-08-21T09:51:14;13.00;;;2.30;;
71622;SDS011;59473;53.214;5.728;2022-08-21T09:53:43;10.93;;;2.00;;
71622;SDS011;59473;53.214;5.728;2022-08-21T09:59:16;9.98;;;2.22;;
71622;SDS011;59473;53.214;5.728;2022-08-21T10:01:47;7.20;;;1.80;;
71622;SDS011;59473;53.214;5.728;2022-08-21T10:04:12;9.82;;;1.50;;
71622;SDS011;59473;53.214;5.728;2022-08-21T10:06:37;10.97;;;1.60;;
71622;SDS011;59473;53.214;5.728;2022-08-21T10:09:08;7.00;;;1.50;;
71622;SDS011;59473;53.214;5.728;2022-08-21T10:11:33;6.15;;;1.48;;
71622;SDS011;59473;53.214;5.728;2022-08-21T10:14:07;6.30;;;1.38;;
71622;SDS011;59473;53.214;5.728;2022-08-21T10:16:41;8.27;;;1.70;;
71622;SDS011;59473;53.214;5.728;2022-08-21T10:29:14;6.75;;;1.50;;
71622;SDS011;59473;53.214;5.728;2022-08-21T10:36:58;8.13;;;1.43;;
71622;SDS011;59473;53.214;5.728;2022-08-21T10:39:34;7.67;;;1.20;;
71622;SDS011;59473;53.214;5.728;2022-08-21T10:54:29;9.93;;;1.70;;
71622;SDS011;59473;53.214;5.728;2022-08-21T10:56:58;9.87;;;1.57;;
71622;SDS011;59473;53.214;5.728;2022-08-21T10:59:29;8.13;;;1.30;;
71622;SDS011;59473;53.214;5.728;2022-08-21T11:02:00;6.88;;;1.55;;
71622;SDS011;59473;53.214;5.728;2022-08-21T11:04:31;8.40;;;1.95;;
71622;SDS011;59473;53.214;5.728;2022-08-21T11:07:00;7.97;;;1.50;;
71622;SDS011;59473;53.214;5.728;2022-08-21T11:09:26;7.67;;;1.50;;
71622;SDS011;59473;53.214;5.728;2022-08-21T11:11:54;7.60;;;1.70;;
71622;SDS011;59473;53.214;5.728;2022-08-21T11:14:31;8.73;;;1.50;;
71622;SDS011;59473;53.214;5.728;2022-08-21T11:17:05;6.87;;;1.60;;
71622;SDS011;59473;53.214;5.728;2022-08-21T11:22:08;10.83;;;2.00;;
71622;SDS011;59473;53.214;5.728;2022-08-21T11:27:06;5.43;;;1.40;;
71622;SDS011;59473;53.214;5.728;2022-08-21T11:29:36;9.93;;;1.70;;
71622;SDS011;59473;53.214;5.728;2022-08-21T11:46:00;10.32;;;1.90;;
71622;SDS011;59473;53.214;5.728;2022-08-21T11:51:20;7.10;;;1.67;;
71622;SDS011;59473;53.214;5.728;2022-08-21T11:53:48;7.00;;;1.67;;
71622;SDS011;59473;53.214;5.728;2022-08-21T11:56:18;9.82;;;1.77;;
71622;SDS011;59473;53.214;5.728;2022-08-21T11:58:46;6.82;;;1.17;;
71622;SDS011;59473;53.214;5.728;2022-08-21T12:01:19;7.07;;;1.73;;
71622;SDS011;59473;53.214;5.728;2022-08-21T12:03:55;11.15;;;1.90;;
71622;SDS011;59473;53.214;5.728;2022-08-21T12:06:29;8.50;;;1.63;;
71622;SDS011;59473;53.214;5.728;2022-08-21T12:09:37;9.00;;;1.67;;
71622;SDS011;59473;53.214;5.728;2022-08-21T12:14:39;9.18;;;1.52;;
71622;SDS011;59473;53.214;5.728;2022-08-21T12:17:06;5.28;;;1.15;;
71622;SDS011;59473;53.214;5.728;2022-08-21T12:19:31;10.30;;;1.48;;
71622;SDS011;59473;53.214;5.728;2022-08-21T12:29:59;7.88;;;1.58;;
71622;SDS011;59473;53.214;5.728;2022-08-21T12:34:52;8.30;;;1.33;;
71622;SDS011;59473;53.214;5.728;2022-08-21T12:39:45;8.97;;;1.53;;
71622;SDS011;59473;53.214;5.728;2022-08-21T12:42:16;6.30;;;1.50;;
71622;SDS011;59473;53.214;5.728;2022-08-21T12:44:43;7.47;;;1.05;;
71622;SDS011;59473;53.214;5.728;2022-08-21T12:47:16;9.27;;;1.50;;
71622;SDS011;59473;53.214;5.728;2022-08-21T12:50:05;10.93;;;1.80;;
71622;SDS011;59473;53.214;5.728;2022-08-21T12:52:32;6.35;;;1.92;;
71622;SDS011;59473;53.214;5.728;2022-08-21T12:54:58;9.82;;;1.75;;
71622;SDS011;59473;53.214;5.728;2022-08-21T12:57:25;7.20;;;1.50;;
71622;SDS011;59473;53.214;5.728;2022-08-21T13:00:09;8.38;;;1.52;;
71622;SDS011;59473;53.214;5.728;2022-08-21T13:02:38;5.80;;;1.30;;
71622;SDS011;59473;53.214;5.728;2022-08-21T13:05:07;5.30;;;1.05;;
71622;SDS011;59473;53.214;5.728;2022-08-21T13:07:35;7.45;;;1.40;;
71622;SDS011;59473;53.214;5.728;2022-08-21T13:10:03;7.25;;;1.83;;
71622;SDS011;59473;53.214;5.728;2022-08-21T13:12:29;6.45;;;1.55;;
71622;SDS011;59473;53.214;5.728;2022-08-21T13:14:56;6.72;;;1.38;;
71622;SDS011;59473;53.214;5.728;2022-08-21T13:17:22;12.88;;;2.47;;
71622;SDS011;59473;53.214;5.728;2022-08-21T13:20:05;9.32;;;1.90;;
71622;SDS011;59473;53.214;5.728;2022-08-21T13:22:30;5.72;;;1.73;;
71622;SDS011;59473;53.214;5.728;2022-08-21T13:24:56;9.25;;;1.85;;
71622;SDS011;59473;53.214;5.728;2022-08-21T13:27:26;9.77;;;1.77;;
71622;SDS011;59473;53.214;5.728;2022-08-21T13:30:09;8.93;;;1.77;;
71622;SDS011;59473;53.214;5.728;2022-08-21T13:32:35;10.23;;;1.42;;
71622;SDS011;59473;53.214;5.728;2022-08-21T13:35:13;10.93;;;2.13;;
71622;SDS011;59473;53.214;5.728;2022-08-21T13:37:40;7.13;;;1.10;;
71622;SDS011;59473;53.214;5.728;2022-08-21T13:40:06;10.52;;;1.77;;
71622;SDS011;59473;53.214;5.728;2022-08-21T13:42:32;9.40;;;1.33;;
71622;SDS011;59473;53.214;5.728;2022-08-21T13:44:58;6.70;;;1.30;;
71622;SDS011;59473;53.214;5.728;2022-08-21T13:47:23;9.93;;;1.97;;
71622;SDS011;59473;53.214;5.728;2022-08-21T13:49:49;12.00;;;1.63;;
71622;SDS011;59473;53.214;5.728;2022-08-21T13:54:44;8.48;;;1.45;;
71622;SDS011;59473;53.214;5.728;2022-08-21T13:57:17;10.68;;;1.83;;
71622;SDS011;59473;53.214;5.728;2022-08-21T13:59:42;9.15;;;1.98;;
71622;SDS011;59473;53.214;5.728;2022-08-21T14:02:13;6.80;;;1.70;;
71622;SDS011;59473;53.214;5.728;2022-08-21T14:04:50;12.35;;;1.75;;
71622;SDS011;59473;53.214;5.728;2022-08-21T14:07:18;10.15;;;2.08;;
71622;SDS011;59473;53.214;5.728;2022-08-21T14:09:45;10.50;;;1.73;;
71622;SDS011;59473;53.214;5.728;2022-08-21T14:12:28;8.02;;;1.80;;
71622;SDS011;59473;53.214;5.728;2022-08-21T14:14:54;10.52;;;2.08;;
71622;SDS011;59473;53.214;5.728;2022-08-21T14:17:31;10.98;;;1.60;;
71622;SDS011;59473;53.214;5.728;2022-08-21T14:19:56;9.85;;;2.00;;
71622;SDS011;59473;53.214;5.728;2022-08-21T14:24:47;12.93;;;2.13;;
71622;SDS011;59473;53.214;5.728;2022-08-21T14:27:15;12.27;;;1.70;;
71622;SDS011;59473;53.214;5.728;2022-08-21T14:29:41;9.55;;;1.50;;
71622;SDS011;59473;53.214;5.728;2022-08-21T14:32:14;11.17;;;2.07;;
71622;SDS011;59473;53.214;5.728;2022-08-21T14:34:40;12.43;;;1.75;;
71622;SDS011;59473;53.214;5.728;2022-08-21T14:37:05;9.90;;;2.10;;
71622;SDS011;59473;53.214;5.728;2022-08-21T14:39:30;12.67;;;1.77;;
71622;SDS011;59473;53.214;5.728;2022-08-21T14:41:56;8.63;;;1.33;;
71622;SDS011;59473;53.214;5.728;2022-08-21T14:44:22;9.10;;;2.28;;
71622;SDS011;59473;53.214;5.728;2022-08-21T14:46:47;10.13;;;1.57;;
71622;SDS011;59473;53.214;5.728;2022-08-21T14:49:14;13.53;;;2.47;;
71622;SDS011;59473;53.214;5.728;2022-08-21T14:51:39;13.98;;;2.35;;
71622;SDS011;59473;53.214;5.728;2022-08-21T14:54:05;8.77;;;1.87;;
71622;SDS011;59473;53.214;5.728;2022-08-21T14:56:30;12.85;;;1.95;;
71622;SDS011;59473;53.214;5.728;2022-08-21T14:58:56;11.13;;;2.07;;
71622;SDS011;59473;53.214;5.728;2022-08-21T15:01:26;10.27;;;1.95;;
71622;SDS011;59473;53.214;5.728;2022-08-21T15:03:51;11.10;;;2.00;;
71622;SDS011;59473;53.214;5.728;2022-08-21T15:06:17;9.30;;;1.73;;
71622;SDS011;59473;53.214;5.728;2022-08-21T15:08:42;9.33;;;1.80;;
71622;SDS011;59473;53.214;5.728;2022-08-21T15:11:08;10.27;;;1.70;;
71622;SDS011;59473;53.214;5.728;2022-08-21T15:13:35;12.18;;;2.30;;
71622;SDS011;59473;53.214;5.728;2022-08-21T15:16:01;10.87;;;2.03;;
71622;SDS011;59473;53.214;5.728;2022-08-21T15:18:27;11.20;;;1.92;;
71622;SDS011;59473;53.214;5.728;2022-08-21T15:20:53;10.13;;;2.03;;
71622;SDS011;59473;53.214;5.728;2022-08-21T15:23:18;8.57;;;2.27;;
71622;SDS011;59473;53.214;5.728;2022-08-21T15:25:44;11.63;;;2.05;;
71622;SDS011;59473;53.214;5.728;2022-08-21T15:28:10;9.63;;;1.53;;
71622;SDS011;59473;53.214;5.728;2022-08-21T15:30:36;8.10;;;1.80;;
71622;SDS011;59473;53.214;5.728;2022-08-21T15:33:02;13.40;;;2.55;;
71622;SDS011;59473;53.214;5.728;2022-08-21T15:35:27;9.47;;;1.87;;
71622;SDS011;59473;53.214;5.728;2022-08-21T15:37:53;8.97;;;1.90;;
71622;SDS011;59473;53.214;5.728;2022-08-21T15:40:18;9.50;;;1.80;;
71622;SDS011;59473;53.214;5.728;2022-08-21T15:42:43;11.53;;;2.00;;
71622;SDS011;59473;53.214;5.728;2022-08-21T15:45:10;9.80;;;1.80;;
71622;SDS011;59473;53.214;5.728;2022-08-21T15:47:36;9.33;;;2.30;;
71622;SDS011;59473;53.214;5.728;2022-08-21T15:50:03;10.75;;;2.38;;
71622;SDS011;59473;53.214;5.728;2022-08-21T15:52:29;8.25;;;2.00;;
71622;SDS011;59473;53.214;5.728;2022-08-21T15:54:54;9.77;;;1.80;;
71622;SDS011;59473;53.214;5.728;2022-08-21T15:57:20;10.40;;;2.30;;
71622;SDS011;59473;53.214;5.728;2022-08-21T15:59:47;9.63;;;2.20;;
71622;SDS011;59473;53.214;5.728;2022-08-21T16:02:22;10.88;;;2.47;;
71622;SDS011;59473;53.214;5.728;2022-08-21T16:04:48;9.47;;;2.20;;